sensor_id;sensor_type;location;lat;lon;timestamp;pressure;altitude;pressure_sealevel;temperature;humidity
43804;BME280;29430;52.924;-2.388;2023-02-02T00:03:19;100057.34;;;8.44;84.77
43804;BME280;29430;52.924;-2.388;2023-02-02T00:08:11;100060.22;;;8.42;84.64
43804;BME280;29430;52.924;-2.388;2023-02-02T00:13:02;100058.91;;;8.38;84.65
43804;BME280;29430;52.924;-2.388;2023-02-02T00:17:54;100068.91;;;8.37;84.85
43804;BME280;29430;52.924;-2.388;2023-02-02T00:22:46;100061.00;;;8.36;84.78
43804;BME280;29430;52.924;-2.388;2023-02-02T00:27:38;100067.41;;;8.35;85.20
43804;BME280;29430;52.924;-2.388;2023-02-02T00:32:29;100070.75;;;8.37;85.40
43804;BME280;29430;52.924;-2.388;2023-02-02T00:37:21;100066.41;;;8.36;85.04
43804;BME280;29430;52.924;-2.388;2023-02-02T00:42:13;100076.53;;;8.34;84.97
43804;BME280;29430;52.924;-2.388;2023-02-02T00:47:05;100072.78;;;8.28;84.93
43804;BME280;29430;52.924;-2.388;2023-02-02T00:51:56;100072.97;;;8.27;84.99
43804;BME280;29430;52.924;-2.388;2023-02-02T00:56:49;100072.69;;;8.21;85.25
43804;BME280;29430;52.924;-2.388;2023-02-02T01:01:41;100075.78;;;8.18;85.12
43804;BME280;29430;52.924;-2.388;2023-02-02T01:06:33;100073.47;;;8.15;85.00
43804;BME280;29430;52.924;-2.388;2023-02-02T01:11:25;100074.91;;;8.11;84.90
43804;BME280;29430;52.924;-2.388;2023-02-02T01:16:16;100069.41;;;8.04;84.97
43804;BME280;29430;52.924;-2.388;2023-02-02T01:21:10;100072.88;;;7.98;85.00
43804;BME280;29430;52.924;-2.388;2023-02-02T01:26:05;100081.19;;;7.97;85.40
43804;BME280;29430;52.924;-2.388;2023-02-02T01:30:57;100064.53;;;7.93;85.74
43804;BME280;29430;52.924;-2.388;2023-02-02T01:35:52;100070.75;;;7.94;86.02
43804;BME280;29430;52.924;-2.388;2023-02-02T01:40:55;100053.91;;;7.92;86.70
43804;BME280;29430;52.924;-2.388;2023-02-02T01:45:47;100046.63;;;7.92;86.44
43804;BME280;29430;52.924;-2.388;2023-02-02T01:50:40;100047.03;;;7.89;86.76
43804;BME280;29430;52.924;-2.388;2023-02-02T01:55:34;100039.88;;;7.81;87.56
43804;BME280;29430;52.924;-2.388;2023-02-02T02:00:26;100034.03;;;7.78;88.42
43804;BME280;29430;52.924;-2.388;2023-02-02T02:05:23;100030.31;;;7.79;88.21
43804;BME280;29430;52.924;-2.388;2023-02-02T02:10:16;100025.75;;;7.79;88.14
43804;BME280;29430;52.924;-2.388;2023-02-02T02:15:09;100021.75;;;7.75;88.04
43804;BME280;29430;52.924;-2.388;2023-02-02T02:26:08;100016.47;;;7.67;88.47
43804;BME280;29430;52.924;-2.388;2023-02-02T02:36:53;100024.72;;;7.59;89.69
43804;BME280;29430;52.924;-2.388;2023-02-02T02:41:51;100018.25;;;7.60;89.42
43804;BME280;29430;52.924;-2.388;2023-02-02T02:46:44;100018.63;;;7.57;89.93
43804;BME280;29430;52.924;-2.388;2023-02-02T02:51:41;100025.91;;;7.56;89.69
43804;BME280;29430;52.924;-2.388;2023-02-02T03:01:51;100002.19;;;7.51;89.85
43804;BME280;29430;52.924;-2.388;2023-02-02T03:06:52;100006.56;;;7.52;90.19
43804;BME280;29430;52.924;-2.388;2023-02-02T03:11:47;100005.72;;;7.52;90.25
43804;BME280;29430;52.924;-2.388;2023-02-02T03:16:39;99995.78;;;7.52;90.86
43804;BME280;29430;52.924;-2.388;2023-02-02T03:21:32;100002.63;;;7.55;90.67
43804;BME280;29430;52.924;-2.388;2023-02-02T03:26:24;99997.25;;;7.55;92.07
43804;BME280;29430;52.924;-2.388;2023-02-02T03:31:16;99992.50;;;7.57;92.31
43804;BME280;29430;52.924;-2.388;2023-02-02T03:36:09;99996.84;;;7.58;93.00
43804;BME280;29430;52.924;-2.388;2023-02-02T03:41:00;100004.13;;;7.58;93.62
43804;BME280;29430;52.924;-2.388;2023-02-02T03:46:03;99996.22;;;7.56;93.67
43804;BME280;29430;52.924;-2.388;2023-02-02T03:50:55;99996.41;;;7.55;93.95
43804;BME280;29430;52.924;-2.388;2023-02-02T03:55:47;99996.22;;;7.56;94.53
43804;BME280;29430;52.924;-2.388;2023-02-02T04:00:40;99993.72;;;7.55;95.01
43804;BME280;29430;52.924;-2.388;2023-02-02T04:05:32;99990.38;;;7.52;95.27
43804;BME280;29430;52.924;-2.388;2023-02-02T04:10:24;99986.25;;;7.57;96.16
43804;BME280;29430;52.924;-2.388;2023-02-02T04:15:15;99994.34;;;7.57;96.56
43804;BME280;29430;52.924;-2.388;2023-02-02T04:20:08;99988.56;;;7.60;96.97
43804;BME280;29430;52.924;-2.388;2023-02-02T04:25:00;99990.88;;;7.63;97.46
43804;BME280;29430;52.924;-2.388;2023-02-02T04:29:52;99993.19;;;7.66;97.88
43804;BME280;29430;52.924;-2.388;2023-02-02T04:34:43;99996.81;;;7.73;98.52
43804;BME280;29430;52.924;-2.388;2023-02-02T04:39:35;99996.03;;;7.79;98.73
43804;BME280;29430;52.924;-2.388;2023-02-02T04:44:27;99991.28;;;7.81;98.55
43804;BME280;29430;52.924;-2.388;2023-02-02T04:49:20;99991.09;;;7.83;98.59
43804;BME280;29430;52.924;-2.388;2023-02-02T04:54:13;100009.97;;;7.83;98.40
43804;BME280;29430;52.924;-2.388;2023-02-02T04:59:05;99989.25;;;7.83;98.38
43804;BME280;29430;52.924;-2.388;2023-02-02T05:03:56;99994.84;;;7.82;98.88
43804;BME280;29430;52.924;-2.388;2023-02-02T05:08:51;100001.88;;;7.83;99.06
43804;BME280;29430;52.924;-2.388;2023-02-02T05:13:46;99997.72;;;7.80;99.01
43804;BME280;29430;52.924;-2.388;2023-02-02T05:18:40;99989.63;;;7.80;99.82
43804;BME280;29430;52.924;-2.388;2023-02-02T05:23:32;99993.97;;;7.81;100.00
43804;BME280;29430;52.924;-2.388;2023-02-02T05:28:24;99984.03;;;7.82;99.86
43804;BME280;29430;52.924;-2.388;2023-02-02T05:33:16;99986.53;;;7.83;100.00
43804;BME280;29430;52.924;-2.388;2023-02-02T05:38:10;99992.56;;;7.85;100.00
43804;BME280;29430;52.924;-2.388;2023-02-02T05:43:02;99996.09;;;7.86;100.00
43804;BME280;29430;52.924;-2.388;2023-02-02T05:47:54;99977.00;;;7.87;100.00
43804;BME280;29430;52.924;-2.388;2023-02-02T05:52:46;99987.41;;;7.91;100.00
43804;BME280;29430;52.924;-2.388;2023-02-02T05:57:39;99986.41;;;7.92;100.00
43804;BME280;29430;52.924;-2.388;2023-02-02T06:02:30;99976.41;;;7.92;100.00
43804;BME280;29430;52.924;-2.388;2023-02-02T06:07:22;99988.06;;;7.93;100.00
43804;BME280;29430;52.924;-2.388;2023-02-02T06:12:14;99990.38;;;7.96;100.00
43804;BME280;29430;52.924;-2.388;2023-02-02T06:17:06;99993.72;;;7.98;100.00
43804;BME280;29430;52.924;-2.388;2023-02-02T06:21:57;99981.44;;;7.95;100.00
43804;BME280;29430;52.924;-2.388;2023-02-02T06:26:49;99982.53;;;8.01;100.00
43804;BME280;29430;52.924;-2.388;2023-02-02T06:31:41;99992.94;;;8.04;100.00
43804;BME280;29430;52.924;-2.388;2023-02-02T06:36:33;99988.19;;;8.06;100.00
43804;BME280;29430;52.924;-2.388;2023-02-02T06:41:25;99990.50;;;8.09;100.00
43804;BME280;29430;52.924;-2.388;2023-02-02T06:46:17;99993.47;;;8.14;100.00
43804;BME280;29430;52.924;-2.388;2023-02-02T06:51:08;100004.06;;;8.16;100.00
43804;BME280;29430;52.924;-2.388;2023-02-02T06:56:03;100000.97;;;8.19;100.00
43804;BME280;29430;52.924;-2.388;2023-02-02T07:01:01;100006.19;;;8.20;100.00
43804;BME280;29430;52.924;-2.388;2023-02-02T07:05:54;100003.28;;;8.22;100.00
43804;BME280;29430;52.924;-2.388;2023-02-02T07:10:46;100003.28;;;8.22;100.00
43804;BME280;29430;52.924;-2.388;2023-02-02T07:15:58;100010.34;;;8.23;100.00
43804;BME280;29430;52.924;-2.388;2023-02-02T07:20:50;100006.81;;;8.22;100.00
43804;BME280;29430;52.924;-2.388;2023-02-02T07:25:41;100011.22;;;8.23;100.00
43804;BME280;29430;52.924;-2.388;2023-02-02T07:30:34;100018.66;;;8.21;100.00
43804;BME280;29430;52.924;-2.388;2023-02-02T07:35:26;100032.16;;;8.21;100.00
43804;BME280;29430;52.924;-2.388;2023-02-02T07:40:18;100032.34;;;8.20;100.00
43804;BME280;29430;52.924;-2.388;2023-02-02T07:45:09;100030.91;;;8.17;100.00
43804;BME280;29430;52.924;-2.388;2023-02-02T07:50:18;100033.41;;;8.19;100.00
43804;BME280;29430;52.924;-2.388;2023-02-02T07:55:10;100020.09;;;8.17;100.00
43804;BME280;29430;52.924;-2.388;2023-02-02T08:00:17;100035.63;;;8.15;99.99
43804;BME280;29430;52.924;-2.388;2023-02-02T08:05:09;100035.00;;;8.13;100.00
43804;BME280;29430;52.924;-2.388;2023-02-02T08:10:01;100036.03;;;8.12;99.78
43804;BME280;29430;52.924;-2.388;2023-02-02T08:14:53;100043.50;;;8.10;100.00
43804;BME280;29430;52.924;-2.388;2023-02-02T08:19:44;100052.44;;;8.11;100.00
43804;BME280;29430;52.924;-2.388;2023-02-02T08:24:36;100059.97;;;8.15;100.00
43804;BME280;29430;52.924;-2.388;2023-02-02T08:29:34;100068.72;;;8.17;100.00
43804;BME280;29430;52.924;-2.388;2023-02-02T08:34:26;100058.56;;;8.19;100.00
43804;BME280;29430;52.924;-2.388;2023-02-02T08:39:18;100054.81;;;8.20;100.00
43804;BME280;29430;52.924;-2.388;2023-02-02T08:44:12;100066.28;;;8.22;100.00
43804;BME280;29430;52.924;-2.388;2023-02-02T08:49:04;100063.38;;;8.24;100.00
43804;BME280;29430;52.924;-2.388;2023-02-02T08:53:56;100077.31;;;8.28;100.00
43804;BME280;29430;52.924;-2.388;2023-02-02T08:58:51;100079.91;;;8.36;99.98
43804;BME280;29430;52.924;-2.388;2023-02-02T09:03:44;100097.31;;;8.48;99.76
43804;BME280;29430;52.924;-2.388;2023-02-02T09:08:36;100089.88;;;8.57;99.23
43804;BME280;29430;52.924;-2.388;2023-02-02T09:13:28;100094.50;;;8.63;98.63
43804;BME280;29430;52.924;-2.388;2023-02-02T09:18:19;100101.41;;;8.66;98.42
43804;BME280;29430;52.924;-2.388;2023-02-02T09:23:11;100101.63;;;8.71;98.33
43804;BME280;29430;52.924;-2.388;2023-02-02T09:28:03;100110.00;;;8.76;98.13
43804;BME280;29430;52.924;-2.388;2023-02-02T09:32:55;100105.88;;;8.80;98.12
43804;BME280;29430;52.924;-2.388;2023-02-02T09:37:46;100109.22;;;8.82;98.09
43804;BME280;29430;52.924;-2.388;2023-02-02T09:42:50;100100.34;;;8.88;97.65
43804;BME280;29430;52.924;-2.388;2023-02-02T09:47:54;100087.22;;;8.92;97.60
43804;BME280;29430;52.924;-2.388;2023-02-02T09:52:53;100094.75;;;8.96;97.94
43804;BME280;29430;52.924;-2.388;2023-02-02T09:57:51;100099.19;;;9.04;97.27
43804;BME280;29430;52.924;-2.388;2023-02-02T10:02:45;100095.47;;;9.12;97.64
43804;BME280;29430;52.924;-2.388;2023-02-02T10:07:44;100102.81;;;9.18;97.33
43804;BME280;29430;52.924;-2.388;2023-02-02T10:12:52;100100.38;;;9.30;97.35
43804;BME280;29430;52.924;-2.388;2023-02-02T10:22:57;100130.28;;;9.50;96.34
43804;BME280;29430;52.924;-2.388;2023-02-02T10:28:03;100139.69;;;9.61;96.90
43804;BME280;29430;52.924;-2.388;2023-02-02T10:33:05;100136.81;;;9.69;97.03
43804;BME280;29430;52.924;-2.388;2023-02-02T10:48:37;100124.75;;;9.78;95.37
43804;BME280;29430;52.924;-2.388;2023-02-02T10:53:30;100127.47;;;9.78;95.06
43804;BME280;29430;52.924;-2.388;2023-02-02T10:58:36;100115.81;;;9.78;94.98
43804;BME280;29430;52.924;-2.388;2023-02-02T11:03:31;100113.50;;;9.75;94.44
43804;BME280;29430;52.924;-2.388;2023-02-02T11:08:33;100109.72;;;9.76;94.92
43804;BME280;29430;52.924;-2.388;2023-02-02T11:13:31;100114.13;;;9.77;94.70
43804;BME280;29430;52.924;-2.388;2023-02-02T11:18:29;100114.53;;;9.74;94.84
43804;BME280;29430;52.924;-2.388;2023-02-02T11:23:21;100114.53;;;9.74;95.46
43804;BME280;29430;52.924;-2.388;2023-02-02T11:28:21;100111.41;;;9.77;95.31
43804;BME280;29430;52.924;-2.388;2023-02-02T11:33:25;100098.09;;;9.82;95.16
43804;BME280;29430;52.924;-2.388;2023-02-02T11:38:18;100102.69;;;9.88;94.61
43804;BME280;29430;52.924;-2.388;2023-02-02T11:43:22;100095.84;;;9.92;93.88
43804;BME280;29430;52.924;-2.388;2023-02-02T11:48:24;100090.22;;;9.94;93.34
43804;BME280;29430;52.924;-2.388;2023-02-02T11:53:44;100087.28;;;9.95;93.38
43804;BME280;29430;52.924;-2.388;2023-02-02T11:58:54;100102.53;;;9.96;92.45
43804;BME280;29430;52.924;-2.388;2023-02-02T12:03:47;100099.81;;;9.96;92.74
43804;BME280;29430;52.924;-2.388;2023-02-02T12:08:39;100091.50;;;9.98;92.19
43804;BME280;29430;52.924;-2.388;2023-02-02T12:44:22;100063.38;;;10.26;87.96
43804;BME280;29430;52.924;-2.388;2023-02-02T13:10:27;100050.81;;;10.98;83.11
43804;BME280;29430;52.924;-2.388;2023-02-02T13:15:28;100056.03;;;11.06;81.73
43804;BME280;29430;52.924;-2.388;2023-02-02T13:20:37;100061.88;;;11.10;79.82
43804;BME280;29430;52.924;-2.388;2023-02-02T13:25:36;100062.69;;;11.10;78.01
43804;BME280;29430;52.924;-2.388;2023-02-02T13:30:34;100073.97;;;11.07;78.30
43804;BME280;29430;52.924;-2.388;2023-02-02T13:35:48;100076.69;;;11.07;77.16
43804;BME280;29430;52.924;-2.388;2023-02-02T13:40:42;100067.13;;;11.05;75.62
43804;BME280;29430;52.924;-2.388;2023-02-02T14:01:10;100050.34;;;11.21;75.02
43804;BME280;29430;52.924;-2.388;2023-02-02T14:06:15;100049.09;;;11.24;74.35
43804;BME280;29430;52.924;-2.388;2023-02-02T14:11:15;100051.59;;;11.25;75.92
43804;BME280;29430;52.924;-2.388;2023-02-02T14:26:46;100045.97;;;11.20;76.30
43804;BME280;29430;52.924;-2.388;2023-02-02T14:31:50;100050.16;;;11.16;76.20
43804;BME280;29430;52.924;-2.388;2023-02-02T14:42:13;100054.13;;;11.14;76.85
43804;BME280;29430;52.924;-2.388;2023-02-02T14:53:18;100061.69;;;11.05;77.68
43804;BME280;29430;52.924;-2.388;2023-02-02T14:58:25;100067.09;;;10.98;77.20
43804;BME280;29430;52.924;-2.388;2023-02-02T15:08:28;100067.34;;;10.90;76.75
43804;BME280;29430;52.924;-2.388;2023-02-02T15:13:39;100066.72;;;10.88;78.11
43804;BME280;29430;52.924;-2.388;2023-02-02T15:18:40;100052.94;;;10.83;78.37
43804;BME280;29430;52.924;-2.388;2023-02-02T15:23:40;100042.53;;;10.86;79.69
43804;BME280;29430;52.924;-2.388;2023-02-02T15:33:37;100051.09;;;10.63;79.23
43804;BME280;29430;52.924;-2.388;2023-02-02T15:38:36;100059.03;;;10.51;80.86
43804;BME280;29430;52.924;-2.388;2023-02-02T15:43:28;100066.97;;;10.39;81.02
43804;BME280;29430;52.924;-2.388;2023-02-02T15:48:26;100056.97;;;10.33;81.67
43804;BME280;29430;52.924;-2.388;2023-02-02T15:53:27;100065.69;;;10.29;82.55
43804;BME280;29430;52.924;-2.388;2023-02-02T16:03:23;100072.31;;;10.13;83.22
43804;BME280;29430;52.924;-2.388;2023-02-02T16:08:25;100064.19;;;10.06;83.73
43804;BME280;29430;52.924;-2.388;2023-02-02T16:13:24;100072.53;;;9.98;84.33
43804;BME280;29430;52.924;-2.388;2023-02-02T16:18:17;100072.72;;;9.96;84.03
43804;BME280;29430;52.924;-2.388;2023-02-02T16:23:14;100063.94;;;9.94;84.52
43804;BME280;29430;52.924;-2.388;2023-02-02T16:28:12;100062.72;;;9.97;84.68
43804;BME280;29430;52.924;-2.388;2023-02-02T16:33:36;100085.63;;;9.94;84.41
43804;BME280;29430;52.924;-2.388;2023-02-02T16:38:33;100085.63;;;9.88;83.77
43804;BME280;29430;52.924;-2.388;2023-02-02T16:43:27;100081.84;;;9.82;83.08
43804;BME280;29430;52.924;-2.388;2023-02-02T16:53:23;100098.06;;;9.75;84.69
43804;BME280;29430;52.924;-2.388;2023-02-02T16:58:17;100112.66;;;9.74;85.37
43804;BME280;29430;52.924;-2.388;2023-02-02T17:03:14;100123.28;;;9.76;86.12
43804;BME280;29430;52.924;-2.388;2023-02-02T17:08:08;100123.28;;;9.76;85.65
43804;BME280;29430;52.924;-2.388;2023-02-02T17:13:02;100115.16;;;9.76;86.46
43804;BME280;29430;52.924;-2.388;2023-02-02T17:17:54;100107.22;;;9.74;85.96
43804;BME280;29430;52.924;-2.388;2023-02-02T17:22:48;100099.31;;;9.73;85.97
43804;BME280;29430;52.924;-2.388;2023-02-02T17:27:40;100099.09;;;9.67;85.58
43804;BME280;29430;52.924;-2.388;2023-02-02T17:32:32;100101.38;;;9.64;85.71
43804;BME280;29430;52.924;-2.388;2023-02-02T17:37:24;100100.94;;;9.60;84.64
43804;BME280;29430;52.924;-2.388;2023-02-02T17:42:24;100093.00;;;9.59;84.42
43804;BME280;29430;52.924;-2.388;2023-02-02T17:47:17;100106.94;;;9.56;85.15
43804;BME280;29430;52.924;-2.388;2023-02-02T17:52:09;100116.53;;;9.52;84.41
43804;BME280;29430;52.924;-2.388;2023-02-02T17:57:01;100110.03;;;9.46;84.85
43804;BME280;29430;52.924;-2.388;2023-02-02T18:01:52;100112.75;;;9.46;84.47
43804;BME280;29430;52.924;-2.388;2023-02-02T18:06:45;100135.63;;;9.43;85.33
43804;BME280;29430;52.924;-2.388;2023-02-02T18:11:37;100145.63;;;9.43;85.77
43804;BME280;29430;52.924;-2.388;2023-02-02T18:16:31;100156.25;;;9.44;86.29
43804;BME280;29430;52.924;-2.388;2023-02-02T18:21:23;100126.47;;;9.44;86.54
43804;BME280;29430;52.924;-2.388;2023-02-02T18:26:20;100135.63;;;9.43;87.06
43804;BME280;29430;52.924;-2.388;2023-02-02T18:31:17;100120.44;;;9.42;87.05
43804;BME280;29430;52.924;-2.388;2023-02-02T18:36:13;100129.78;;;9.40;87.24
43804;BME280;29430;52.924;-2.388;2023-02-02T18:41:07;100128.09;;;9.39;87.94
43804;BME280;29430;52.924;-2.388;2023-02-02T18:46:00;100132.91;;;9.37;88.52
43804;BME280;29430;52.924;-2.388;2023-02-02T18:50:53;100138.94;;;9.39;88.82
43804;BME280;29430;52.924;-2.388;2023-02-02T18:55:44;100145.00;;;9.41;88.84
43804;BME280;29430;52.924;-2.388;2023-02-02T19:00:36;100141.44;;;9.40;89.25
43804;BME280;29430;52.924;-2.388;2023-02-02T19:05:28;100151.00;;;9.36;89.45
43804;BME280;29430;52.924;-2.388;2023-02-02T19:10:38;100174.94;;;9.32;89.54
43804;BME280;29430;52.924;-2.388;2023-02-02T19:15:36;100182.41;;;9.30;90.14
43804;BME280;29430;52.924;-2.388;2023-02-02T19:20:29;100172.59;;;9.29;90.43
43804;BME280;29430;52.924;-2.388;2023-02-02T19:25:21;100183.63;;;9.28;90.98
43804;BME280;29430;52.924;-2.388;2023-02-02T19:30:20;100160.34;;;9.27;91.23
43804;BME280;29430;52.924;-2.388;2023-02-02T19:35:19;100166.56;;;9.27;91.02
43804;BME280;29430;52.924;-2.388;2023-02-02T19:45:24;100182.81;;;9.27;91.25
43804;BME280;29430;52.924;-2.388;2023-02-02T19:50:25;100176.09;;;9.23;91.16
43804;BME280;29430;52.924;-2.388;2023-02-02T19:55:28;100157.56;;;9.20;91.53
43804;BME280;29430;52.924;-2.388;2023-02-02T20:00:28;100153.00;;;9.21;92.45
43804;BME280;29430;52.924;-2.388;2023-02-02T20:05:23;100143.81;;;9.22;91.83
43804;BME280;29430;52.924;-2.388;2023-02-02T20:10:40;100130.50;;;9.20;91.44
43804;BME280;29430;52.924;-2.388;2023-02-02T20:15:38;100124.22;;;9.13;90.62
43804;BME280;29430;52.924;-2.388;2023-02-02T20:20:41;100118.75;;;9.06;90.34
43804;BME280;29430;52.924;-2.388;2023-02-02T20:25:34;100117.22;;;8.97;89.58
43804;BME280;29430;52.924;-2.388;2023-02-02T20:30:27;100126.78;;;8.93;89.26
43804;BME280;29430;52.924;-2.388;2023-02-02T20:35:39;100137.81;;;8.91;89.36
43804;BME280;29430;52.924;-2.388;2023-02-02T20:40:33;100135.50;;;8.88;88.67
43804;BME280;29430;52.924;-2.388;2023-02-02T20:45:25;100149.84;;;8.89;87.12
43804;BME280;29430;52.924;-2.388;2023-02-02T20:50:19;100141.94;;;8.87;87.16
43804;BME280;29430;52.924;-2.388;2023-02-02T20:55:12;100138.41;;;8.87;87.19
43804;BME280;29430;52.924;-2.388;2023-02-02T21:00:11;100133.81;;;8.87;87.21
43804;BME280;29430;52.924;-2.388;2023-02-02T21:05:04;100148.34;;;8.86;87.78
43804;BME280;29430;52.924;-2.388;2023-02-02T21:09:55;100141.22;;;8.78;88.88
43804;BME280;29430;52.924;-2.388;2023-02-02T21:14:47;100124.56;;;8.75;89.80
43804;BME280;29430;52.924;-2.388;2023-02-02T21:19:39;100116.84;;;8.72;90.50
43804;BME280;29430;52.924;-2.388;2023-02-02T21:24:30;100119.09;;;8.68;92.06
43804;BME280;29430;52.924;-2.388;2023-02-02T21:29:22;100127.63;;;8.65;92.31
43804;BME280;29430;52.924;-2.388;2023-02-02T21:34:18;100126.56;;;8.66;92.16
43804;BME280;29430;52.924;-2.388;2023-02-02T21:39:16;100140.28;;;8.65;93.06
43804;BME280;29430;52.924;-2.388;2023-02-02T21:44:18;100131.13;;;8.66;93.62
43804;BME280;29430;52.924;-2.388;2023-02-02T21:49:34;100134.66;;;8.66;94.21
43804;BME280;29430;52.924;-2.388;2023-02-02T21:54:34;100139.06;;;8.67;95.38
43804;BME280;29430;52.924;-2.388;2023-02-02T21:59:32;100140.06;;;8.66;95.62
43804;BME280;29430;52.924;-2.388;2023-02-02T22:04:27;100148.66;;;8.70;96.03
43804;BME280;29430;52.924;-2.388;2023-02-02T22:09:21;100157.59;;;8.70;96.77
43804;BME280;29430;52.924;-2.388;2023-02-02T22:14:21;100175.56;;;8.78;96.69
43804;BME280;29430;52.924;-2.388;2023-02-02T22:19:37;100159.97;;;8.80;96.59
43804;BME280;29430;52.924;-2.388;2023-02-02T22:24:29;100159.75;;;8.82;96.49
43804;BME280;29430;52.924;-2.388;2023-02-02T22:29:21;100170.38;;;8.83;96.78
43804;BME280;29430;52.924;-2.388;2023-02-02T22:34:14;100182.91;;;8.84;96.92
43804;BME280;29430;52.924;-2.388;2023-02-02T22:39:06;100165.44;;;8.87;96.75
43804;BME280;29430;52.924;-2.388;2023-02-02T22:43:58;100149.22;;;8.87;96.45
43804;BME280;29430;52.924;-2.388;2023-02-02T22:48:50;100161.25;;;8.84;97.09
43804;BME280;29430;52.924;-2.388;2023-02-02T22:53:41;100196.19;;;8.79;97.02
43804;BME280;29430;52.924;-2.388;2023-02-02T22:58:33;100202.41;;;8.80;97.38
43804;BME280;29430;52.924;-2.388;2023-02-02T23:03:25;100194.94;;;8.82;97.44
43804;BME280;29430;52.924;-2.388;2023-02-02T23:08:17;100187.47;;;8.84;97.91
43804;BME280;29430;52.924;-2.388;2023-02-02T23:13:09;100171.69;;;8.87;97.76
43804;BME280;29430;52.924;-2.388;2023-02-02T23:18:02;100151.94;;;8.87;98.04
43804;BME280;29430;52.924;-2.388;2023-02-02T23:22:54;100135.69;;;8.87;98.06
43804;BME280;29430;52.924;-2.388;2023-02-02T23:27:45;100125.06;;;8.85;97.88
43804;BME280;29430;52.924;-2.388;2023-02-02T23:32:37;100132.78;;;8.88;97.88
43804;BME280;29430;52.924;-2.388;2023-02-02T23:37:29;100148.81;;;8.90;97.70
43804;BME280;29430;52.924;-2.388;2023-02-02T23:42:21;100163.19;;;8.90;97.86
43804;BME280;29430;52.924;-2.388;2023-02-02T23:47:14;100172.59;;;8.94;98.07
43804;BME280;29430;52.924;-2.388;2023-02-02T23:52:06;100179.44;;;8.97;97.60
43804;BME280;29430;52.924;-2.388;2023-02-02T23:56:58;100183.66;;;9.00;97.50
